createdAt,value
2018-03-03T00:02:11.982Z,-7.40
2018-03-03T00:04:41.544Z,-7.40
2018-03-03T00:07:11.830Z,-7.50
2018-03-03T00:09:41.611Z,-7.50
2018-03-03T00:12:11.034Z,-7.50
2018-03-03T00:14:40.680Z,-7.50
2018-03-03T00:17:10.254Z,-7.50
2018-03-03T00:19:39.957Z,-7.50
2018-03-03T00:22:11.916Z,-7.60
2018-03-03T00:24:41.788Z,-7.60
2018-03-03T00:27:11.422Z,-7.60
2018-03-03T00:29:41.299Z,-7.60
2018-03-03T00:32:11.048Z,-7.60
2018-03-03T00:34:40.829Z,-7.60
2018-03-03T00:40:43.689Z,-7.70
2018-03-03T00:43:13.224Z,-7.70
2018-03-03T00:45:44.460Z,-7.70
2018-03-03T00:48:14.403Z,-7.70
2018-03-03T00:50:47.700Z,-7.70
2018-03-03T00:53:18.105Z,-7.70
2018-03-03T00:55:47.745Z,-7.70
2018-03-03T00:59:37.332Z,-7.80
2018-03-03T01:02:07.037Z,-7.90
2018-03-03T01:05:08.116Z,-7.80
2018-03-03T01:08:40.417Z,-7.90
2018-03-03T01:11:10.552Z,-7.80
2018-03-03T01:13:40.466Z,-7.90
2018-03-03T01:16:10.095Z,-7.90
2018-03-03T01:18:40.388Z,-7.90
2018-03-03T01:21:10.311Z,-7.90
2018-03-03T01:23:40.014Z,-7.90
2018-03-03T01:26:10.578Z,-7.90
2018-03-03T01:28:41.725Z,-7.90
2018-03-03T01:31:12.393Z,-7.90
2018-03-03T01:33:42.411Z,-7.90
2018-03-03T01:36:12.486Z,-7.80
2018-03-03T01:38:42.963Z,-7.90
2018-03-03T01:41:12.697Z,-7.90
2018-03-03T01:43:42.621Z,-7.80
2018-03-03T01:46:12.329Z,-7.80
2018-03-03T01:48:42.083Z,-7.80
2018-03-03T01:51:17.128Z,-7.90
2018-03-03T01:53:46.694Z,-7.80
2018-03-03T01:56:17.246Z,-7.90
2018-03-03T01:58:47.072Z,-8.00
2018-03-03T02:01:16.956Z,-7.80
2018-03-03T02:03:47.318Z,-7.80
2018-03-03T02:06:22.134Z,-7.90
2018-03-03T02:08:53.777Z,-7.80
2018-03-03T02:11:24.130Z,-7.70
2018-03-03T02:13:54.150Z,-7.80
2018-03-03T02:16:24.100Z,-7.80
2018-03-03T02:18:53.668Z,-7.80
2018-03-03T02:21:23.273Z,-7.90
2018-03-03T02:23:52.899Z,-7.90
2018-03-03T02:26:22.318Z,-7.90
2018-03-03T02:28:53.179Z,-7.90
2018-03-03T02:31:26.970Z,-7.90
2018-03-03T02:33:56.465Z,-8.00
2018-03-03T02:36:32.069Z,-7.90
2018-03-03T02:39:01.282Z,-7.90
2018-03-03T02:41:30.444Z,-8.00
2018-03-03T02:44:00.793Z,-8.00
2018-03-03T02:46:30.259Z,-8.00
2018-03-03T02:48:59.593Z,-7.90
2018-03-03T02:51:29.256Z,-7.90
2018-03-03T02:53:58.934Z,-8.00
2018-03-03T02:56:31.205Z,-8.00
2018-03-03T02:59:00.873Z,-8.00
2018-03-03T03:01:30.127Z,-8.00
2018-03-03T03:03:59.515Z,-8.00
2018-03-03T03:06:28.732Z,-8.00
2018-03-03T03:08:57.941Z,-7.90
2018-03-03T03:11:27.448Z,-8.00
2018-03-03T03:13:56.604Z,-8.10
2018-03-03T03:16:25.934Z,-8.20
2018-03-03T03:18:55.131Z,-8.20
2018-03-03T03:21:24.423Z,-8.20
2018-03-03T03:23:53.735Z,-8.20
2018-03-03T03:26:26.696Z,-8.20
2018-03-03T03:28:56.025Z,-8.30
2018-03-03T03:31:25.096Z,-8.30
2018-03-03T03:33:54.502Z,-8.20
2018-03-03T03:36:23.739Z,-8.20
2018-03-03T03:38:53.630Z,-8.10
2018-03-03T03:41:22.995Z,-8.20
2018-03-03T03:43:52.183Z,-8.10
2018-03-03T03:46:21.416Z,-8.10
2018-03-03T03:48:50.543Z,-8.10
2018-03-03T03:51:20.247Z,-8.10
2018-03-03T03:53:50.130Z,-8.10
2018-03-03T03:56:19.445Z,-8.20
2018-03-03T03:58:48.502Z,-8.20
2018-03-03T04:01:17.627Z,-8.10
2018-03-03T04:03:46.750Z,-8.10
2018-03-03T04:06:16.791Z,-8.10
2018-03-03T04:08:45.895Z,-8.10
2018-03-03T04:11:15.025Z,-8.00
2018-03-03T04:13:44.437Z,-8.00
2018-03-03T04:16:13.837Z,-8.00
2018-03-03T04:18:42.947Z,-8.00
2018-03-03T04:21:12.057Z,-8.00
2018-03-03T04:23:42.851Z,-8.00
2018-03-03T04:26:12.196Z,-8.00
2018-03-03T04:28:42.315Z,-8.00
2018-03-03T04:31:12.201Z,-7.90
2018-03-03T04:33:41.570Z,-8.00
2018-03-03T04:36:10.894Z,-7.90
2018-03-03T04:38:40.538Z,-7.90
2018-03-03T04:41:10.496Z,-7.90
2018-03-03T04:43:39.813Z,-8.00
2018-03-03T04:46:09.097Z,-7.90
2018-03-03T04:48:39.214Z,-7.90
2018-03-03T04:51:08.456Z,-7.90
2018-03-03T04:53:37.720Z,-7.90
2018-03-03T04:56:07.940Z,-7.80
2018-03-03T04:58:37.544Z,-7.80
2018-03-03T05:01:14.425Z,-7.80
2018-03-03T05:03:47.743Z,-7.90
2018-03-03T05:06:17.149Z,-7.80
2018-03-03T05:08:46.804Z,-7.70
2018-03-03T05:11:16.099Z,-7.70
2018-03-03T05:13:45.769Z,-7.70
2018-03-03T05:16:16.361Z,-7.60
2018-03-03T05:19:55.364Z,-7.60
2018-03-03T05:22:26.075Z,-7.60
2018-03-03T05:24:57.462Z,-7.60
2018-03-03T05:27:26.744Z,-7.60
2018-03-03T05:29:57.090Z,-7.50
2018-03-03T05:32:26.637Z,-7.60
2018-03-03T05:34:56.336Z,-7.60
2018-03-03T05:37:25.942Z,-7.60
2018-03-03T05:39:55.488Z,-7.60
2018-03-03T05:42:25.763Z,-7.50
2018-03-03T05:44:55.382Z,-7.60
2018-03-03T05:47:24.900Z,-7.50
2018-03-03T05:49:54.743Z,-7.50
2018-03-03T05:52:24.833Z,-7.40
2018-03-03T05:54:54.541Z,-7.40
2018-03-03T05:57:24.709Z,-7.50
2018-03-03T05:59:54.352Z,-7.60
2018-03-03T06:02:24.172Z,-7.60
2018-03-03T06:04:53.667Z,-7.60
2018-03-03T06:07:24.500Z,-7.70
2018-03-03T06:09:53.947Z,-7.70
2018-03-03T06:12:24.125Z,-7.70
2018-03-03T06:14:55.673Z,-7.70
2018-03-03T06:17:26.110Z,-7.60
2018-03-03T06:19:55.600Z,-7.60
2018-03-03T06:22:25.349Z,-7.60
2018-03-03T06:24:55.194Z,-7.50
2018-03-03T06:28:44.252Z,-7.60
2018-03-03T06:31:14.817Z,-7.60
2018-03-03T06:33:44.533Z,-7.70
2018-03-03T06:36:17.060Z,-7.60
2018-03-03T06:39:02.961Z,-7.60
2018-03-03T06:41:32.940Z,-7.60
2018-03-03T06:44:03.663Z,-7.60
2018-03-03T06:46:33.383Z,-7.70
2018-03-03T06:49:03.346Z,-7.60
2018-03-03T06:51:33.124Z,-7.60
2018-03-03T06:54:02.931Z,-7.60
2018-03-03T06:56:32.686Z,-7.60
2018-03-03T06:59:02.649Z,-7.50
2018-03-03T07:01:33.324Z,-7.50
2018-03-03T07:04:03.957Z,-7.60
2018-03-03T07:06:33.597Z,-7.50
2018-03-03T07:09:03.306Z,-7.60
2018-03-03T07:11:33.120Z,-7.50
2018-03-03T07:14:03.238Z,-7.60
2018-03-03T07:16:33.380Z,-7.60
2018-03-03T07:19:03.839Z,-7.50
2018-03-03T07:21:34.535Z,-7.40
2018-03-03T07:24:04.323Z,-7.50
2018-03-03T07:26:34.056Z,-7.50
2018-03-03T07:29:04.217Z,-7.50
2018-03-03T07:31:34.737Z,-7.60
2018-03-03T07:34:05.042Z,-7.50
2018-03-03T07:36:35.028Z,-7.50
2018-03-03T07:39:05.209Z,-7.50
2018-03-03T07:41:36.636Z,-7.30
2018-03-03T07:44:06.437Z,-7.30
2018-03-03T07:46:36.131Z,-7.30
2018-03-03T07:49:06.021Z,-7.30
2018-03-03T07:51:37.216Z,-7.20
2018-03-03T07:54:06.794Z,-7.20
2018-03-03T07:56:45.849Z,-7.20
2018-03-03T07:59:15.458Z,-7.20
2018-03-03T08:01:45.260Z,-7.10
2018-03-03T08:04:15.005Z,-7.20
2018-03-03T08:06:45.469Z,-7.10
2018-03-03T08:09:15.265Z,-7.10
2018-03-03T08:11:45.093Z,-7.10
2018-03-03T08:14:14.730Z,-7.10
2018-03-03T08:16:44.301Z,-7.00
2018-03-03T08:19:14.037Z,-7.10
2018-03-03T08:21:49.307Z,-7.00
2018-03-03T08:24:19.760Z,-6.90
2018-03-03T08:26:50.092Z,-6.90
2018-03-03T08:29:19.677Z,-6.90
2018-03-03T08:31:50.297Z,-6.80
2018-03-03T08:34:20.522Z,-6.70
2018-03-03T08:36:50.978Z,-6.80
2018-03-03T08:39:20.781Z,-6.80
2018-03-03T08:41:50.495Z,-6.70
2018-03-03T08:44:20.122Z,-6.60
2018-03-03T08:46:49.629Z,-6.40
2018-03-03T08:50:22.502Z,-6.30
2018-03-03T08:52:51.998Z,-6.40
2018-03-03T08:55:21.675Z,-6.30
2018-03-03T08:57:51.263Z,-6.30
2018-03-03T09:00:20.818Z,-6.30
2018-03-03T09:03:06.082Z,-6.20
2018-03-03T09:05:37.486Z,-6.10
2018-03-03T09:08:06.932Z,-6.20
2018-03-03T09:10:37.197Z,-6.10
2018-03-03T09:13:06.693Z,-6.10
2018-03-03T09:15:36.105Z,-6.10
2018-03-03T09:18:05.748Z,-6.20
2018-03-03T09:20:35.233Z,-6.00
2018-03-03T09:23:04.783Z,-6.10
2018-03-03T09:25:35.451Z,-5.90
2018-03-03T09:28:05.832Z,-6.00
2018-03-03T09:30:36.306Z,-5.70
2018-03-03T09:33:05.853Z,-5.80
2018-03-03T09:35:35.502Z,-5.50
2018-03-03T09:38:05.356Z,-5.50
2018-03-03T09:40:35.017Z,-5.30
2018-03-03T09:43:04.646Z,-5.60
2018-03-03T09:45:34.310Z,-5.50
2018-03-03T09:48:04.652Z,-5.30
2018-03-03T09:50:35.028Z,-5.20
2018-03-03T09:53:04.500Z,-5.20
2018-03-03T09:55:40.630Z,-5.30
2018-03-03T09:58:11.098Z,-5.20
2018-03-03T10:00:40.825Z,-5.00
2018-03-03T10:03:10.348Z,-4.90
2018-03-03T10:05:40.112Z,-4.80
2018-03-03T10:08:10.401Z,-4.70
2018-03-03T10:10:40.708Z,-4.50
2018-03-03T10:13:11.898Z,-4.60
2018-03-03T10:15:42.395Z,-4.30
2018-03-03T10:18:12.545Z,-4.30
2018-03-03T10:20:42.426Z,-4.30
2018-03-03T10:23:15.481Z,-4.40
2018-03-03T10:25:46.461Z,-4.60
2018-03-03T10:28:16.100Z,-4.50
2018-03-03T10:30:45.860Z,-4.40
2018-03-03T10:33:15.958Z,-4.00
2018-03-03T10:35:45.485Z,-4.10
2018-03-03T10:38:15.100Z,-4.00
2018-03-03T10:40:45.348Z,-3.80
2018-03-03T10:43:15.034Z,-3.90
2018-03-03T10:45:45.621Z,-3.80
2018-03-03T10:48:15.367Z,-3.90
2018-03-03T10:50:45.035Z,-3.80
2018-03-03T10:53:15.112Z,-3.60
2018-03-03T10:55:44.756Z,-3.60
2018-03-03T10:58:14.359Z,-3.70
2018-03-03T11:00:44.486Z,-3.70
2018-03-03T11:03:19.001Z,-3.60
2018-03-03T11:05:48.460Z,-3.70
2018-03-03T11:08:18.642Z,-3.60
2018-03-03T11:10:48.385Z,-3.70
2018-03-03T11:13:18.615Z,-3.40
2018-03-03T11:15:49.122Z,-3.50
2018-03-03T11:18:19.465Z,-3.40
2018-03-03T11:20:49.705Z,-3.40
2018-03-03T11:23:20.002Z,-3.60
2018-03-03T11:25:50.154Z,-3.50
2018-03-03T11:28:19.783Z,-3.60
2018-03-03T11:30:50.119Z,-3.30
2018-03-03T11:33:19.660Z,-3.30
2018-03-03T11:35:49.200Z,-3.30
2018-03-03T11:38:18.712Z,-3.20
2018-03-03T11:40:48.904Z,-3.50
2018-03-03T11:43:19.250Z,-3.40
2018-03-03T11:45:49.606Z,-3.40
2018-03-03T11:48:19.143Z,-3.50
2018-03-03T11:50:49.592Z,-3.50
2018-03-03T11:53:22.856Z,-3.50
2018-03-03T11:55:52.538Z,-3.50
2018-03-03T11:58:21.970Z,-3.30
2018-03-03T12:00:51.498Z,-3.30
2018-03-03T12:03:21.740Z,-3.40
2018-03-03T12:05:51.167Z,-3.40
2018-03-03T12:08:21.388Z,-3.40
2018-03-03T12:10:51.670Z,-3.50
2018-03-03T12:13:21.133Z,-3.50
2018-03-03T12:15:50.738Z,-3.20
2018-03-03T12:18:20.304Z,-3.10
2018-03-03T12:20:49.766Z,-3.10
2018-03-03T12:23:19.508Z,-3.10
2018-03-03T12:25:49.886Z,-2.90
2018-03-03T12:28:19.491Z,-3.00
2018-03-03T12:30:49.798Z,-3.00
2018-03-03T12:33:19.371Z,-3.00
2018-03-03T12:35:49.652Z,-3.10
2018-03-03T12:38:19.128Z,-3.20
2018-03-03T12:40:48.557Z,-3.30
2018-03-03T12:43:17.971Z,-3.20
2018-03-03T12:45:52.101Z,-3.00
2018-03-03T12:48:22.387Z,-3.30
2018-03-03T12:50:52.112Z,-3.40
2018-03-03T12:53:21.847Z,-3.30
2018-03-03T12:55:52.200Z,-3.20
2018-03-03T12:58:21.716Z,-3.20
2018-03-03T13:00:52.413Z,-3.10
2018-03-03T13:03:22.604Z,-2.90
2018-03-03T13:05:52.174Z,-3.00
2018-03-03T13:08:21.743Z,-3.00
2018-03-03T13:10:52.135Z,-2.90
2018-03-03T13:13:21.598Z,-2.90
2018-03-03T13:15:51.838Z,-3.10
2018-03-03T13:18:21.420Z,-3.10
2018-03-03T13:20:51.026Z,-3.10
2018-03-03T13:23:20.552Z,-3.30
2018-03-03T13:25:49.915Z,-3.30
2018-03-03T13:28:20.131Z,-3.10
2018-03-03T13:30:53.239Z,-3.00
2018-03-03T13:33:22.790Z,-3.10
2018-03-03T13:35:53.219Z,-3.00
2018-03-03T13:38:22.763Z,-3.10
2018-03-03T13:40:53.029Z,-2.90
2018-03-03T13:43:23.715Z,-2.90
2018-03-03T13:45:53.200Z,-3.00
2018-03-03T13:48:23.912Z,-2.90
2018-03-03T13:50:54.306Z,-2.80
2018-03-03T13:53:23.920Z,-2.90
2018-03-03T13:55:54.650Z,-2.90
2018-03-03T13:58:24.322Z,-2.90
2018-03-03T14:00:53.847Z,-2.90
2018-03-03T14:03:25.152Z,-2.90
2018-03-03T14:05:54.820Z,-2.90
2018-03-03T14:08:24.335Z,-2.70
2018-03-03T14:10:54.524Z,-2.80
2018-03-03T14:13:25.167Z,-2.80
2018-03-03T14:15:55.461Z,-2.80
2018-03-03T14:18:25.625Z,-2.70
2018-03-03T14:20:55.081Z,-2.70
2018-03-03T14:23:24.596Z,-2.60
2018-03-03T14:25:54.158Z,-2.70
2018-03-03T14:28:23.929Z,-2.70
2018-03-03T14:30:53.406Z,-2.60
2018-03-03T14:33:23.154Z,-2.60
2018-03-03T14:35:52.821Z,-2.60
2018-03-03T14:38:23.056Z,-2.60
2018-03-03T14:40:52.460Z,-2.70
2018-03-03T14:43:21.974Z,-2.70
2018-03-03T14:45:55.151Z,-2.60
2018-03-03T14:48:25.577Z,-2.70
2018-03-03T14:50:56.049Z,-2.70
2018-03-03T14:53:39.812Z,-2.70
2018-03-03T14:56:09.364Z,-2.70
2018-03-03T14:58:39.623Z,-2.70
2018-03-03T15:03:45.392Z,-2.80
2018-03-03T15:06:14.896Z,-2.80
2018-03-03T15:08:44.433Z,-2.80
2018-03-03T15:11:14.121Z,-2.80
2018-03-03T15:15:03.406Z,-2.70
2018-03-03T15:17:33.751Z,-2.80
2018-03-03T15:20:03.521Z,-2.80
2018-03-03T15:22:33.432Z,-2.70
2018-03-03T15:25:03.298Z,-2.70
2018-03-03T15:27:32.732Z,-2.70
2018-03-03T15:30:02.993Z,-2.70
2018-03-03T15:32:32.419Z,-2.80
2018-03-03T15:35:02.625Z,-2.70
2018-03-03T15:37:32.773Z,-2.60
2018-03-03T15:40:02.180Z,-2.70
2018-03-03T15:42:31.581Z,-2.60
2018-03-03T15:45:00.954Z,-2.70
2018-03-03T15:47:31.135Z,-2.70
2018-03-03T15:50:00.666Z,-2.80
2018-03-03T15:52:30.123Z,-2.80
2018-03-03T15:55:00.422Z,-2.80
2018-03-03T15:57:30.660Z,-2.80
2018-03-03T16:00:03.875Z,-2.70
2018-03-03T16:02:34.281Z,-2.70
2018-03-03T16:05:04.690Z,-2.70
2018-03-03T16:07:34.296Z,-2.80
2018-03-03T16:10:04.640Z,-2.70
2018-03-03T16:12:43.530Z,-2.70
2018-03-03T16:15:14.043Z,-2.80
2018-03-03T16:17:43.836Z,-2.90
2018-03-03T16:20:13.952Z,-2.90
2018-03-03T16:22:43.398Z,-2.90
2018-03-03T16:25:12.872Z,-2.90
2018-03-03T16:27:42.280Z,-2.90
2018-03-03T16:30:11.787Z,-3.00
2018-03-03T16:32:42.063Z,-3.10
2018-03-03T16:35:12.219Z,-3.10
2018-03-03T16:37:44.209Z,-3.10
2018-03-03T16:40:14.504Z,-3.00
2018-03-03T16:42:44.676Z,-3.00
2018-03-03T16:45:14.068Z,-3.10
2018-03-03T16:47:43.608Z,-3.10
2018-03-03T16:50:13.862Z,-3.20
2018-03-03T16:52:43.362Z,-3.30
2018-03-03T16:55:12.944Z,-3.20
2018-03-03T16:57:42.454Z,-3.20
2018-03-03T17:00:12.484Z,-3.20
2018-03-03T17:02:41.912Z,-3.20
2018-03-03T17:05:12.313Z,-3.40
2018-03-03T17:07:42.004Z,-3.40
2018-03-03T17:10:12.236Z,-3.50
2018-03-03T17:12:42.589Z,-3.50
2018-03-03T17:15:13.038Z,-3.50
2018-03-03T17:17:42.425Z,-3.50
2018-03-03T17:20:12.971Z,-3.50
2018-03-03T17:22:42.521Z,-3.50
2018-03-03T17:25:11.965Z,-3.60
2018-03-03T17:27:41.459Z,-3.60
2018-03-03T17:30:11.004Z,-3.60
2018-03-03T17:32:40.435Z,-3.70
2018-03-03T17:35:10.588Z,-3.70
2018-03-03T17:37:40.037Z,-3.80
2018-03-03T17:40:09.455Z,-3.70
2018-03-03T17:42:39.268Z,-3.70
2018-03-03T17:45:09.594Z,-3.60
2018-03-03T17:47:39.815Z,-3.60
2018-03-03T17:50:10.117Z,-3.60
2018-03-03T17:52:39.653Z,-3.70
2018-03-03T17:55:09.072Z,-3.60
2018-03-03T17:57:45.841Z,-3.60
2018-03-03T18:00:15.825Z,-3.70
2018-03-03T18:02:45.334Z,-3.60
2018-03-03T18:05:15.567Z,-3.60
2018-03-03T18:07:45.737Z,-3.60
2018-03-03T18:10:15.237Z,-3.60
2018-03-03T18:12:44.736Z,-3.50
2018-03-03T18:15:14.471Z,-3.60
2018-03-03T18:17:43.869Z,-3.70
2018-03-03T18:20:13.671Z,-3.70
2018-03-03T18:22:43.068Z,-3.70
2018-03-03T18:25:12.647Z,-3.70
2018-03-03T18:27:42.104Z,-3.70
2018-03-03T18:30:12.263Z,-3.80
2018-03-03T18:32:45.622Z,-3.80
2018-03-03T18:35:15.035Z,-3.80
2018-03-03T18:37:45.238Z,-3.90
2018-03-03T18:40:14.573Z,-3.90
2018-03-03T18:42:44.860Z,-3.90
2018-03-03T18:45:14.389Z,-4.00
2018-03-03T18:47:44.630Z,-4.00
2018-03-03T18:50:14.064Z,-4.00
2018-03-03T18:52:43.583Z,-4.00
2018-03-03T18:55:13.051Z,-4.00
2018-03-03T18:57:42.416Z,-4.10
2018-03-03T19:00:11.820Z,-4.10
2018-03-03T19:02:41.332Z,-4.10
2018-03-03T19:05:11.566Z,-4.10
2018-03-03T19:07:42.113Z,-4.10
2018-03-03T19:10:11.562Z,-4.20
2018-03-03T19:12:41.776Z,-4.10
2018-03-03T19:15:11.223Z,-4.20
2018-03-03T19:17:41.475Z,-4.10
2018-03-03T19:20:10.916Z,-4.20
2018-03-03T19:22:40.337Z,-4.10
2018-03-03T19:25:09.741Z,-4.10
2018-03-03T19:27:40.074Z,-4.20
2018-03-03T19:30:10.487Z,-4.20
2018-03-03T19:32:40.119Z,-4.20
2018-03-03T19:35:10.345Z,-4.20
2018-03-03T19:37:39.814Z,-4.30
2018-03-03T19:40:09.342Z,-4.20
2018-03-03T19:42:39.547Z,-4.20
2018-03-03T19:45:09.725Z,-4.20
2018-03-03T19:47:39.266Z,-4.30
2018-03-03T19:50:08.869Z,-4.20
2018-03-03T19:52:38.466Z,-4.30
2018-03-03T19:55:07.910Z,-4.30
2018-03-03T19:57:38.210Z,-4.30
2018-03-03T20:00:07.901Z,-4.30
2018-03-03T20:02:37.407Z,-4.30
2018-03-03T20:05:06.994Z,-4.30
2018-03-03T20:07:36.552Z,-4.30
2018-03-03T20:10:06.636Z,-4.30
2018-03-03T20:12:35.976Z,-4.40
2018-03-03T20:15:05.442Z,-4.30
2018-03-03T20:17:34.721Z,-4.30
2018-03-03T20:20:04.256Z,-4.40
2018-03-03T20:22:33.848Z,-4.50
2018-03-03T20:25:03.176Z,-4.50
2018-03-03T20:27:33.383Z,-4.70
2018-03-03T20:30:02.781Z,-4.70
2018-03-03T20:32:32.267Z,-4.70
2018-03-03T20:35:01.566Z,-4.70
2018-03-03T20:37:31.196Z,-4.80
2018-03-03T20:40:00.562Z,-4.80
2018-03-03T20:42:30.953Z,-4.90
2018-03-03T20:45:00.433Z,-4.90
2018-03-03T20:47:29.817Z,-4.90
2018-03-03T20:49:59.971Z,-5.00
2018-03-03T20:52:30.288Z,-5.00
2018-03-03T20:55:00.547Z,-5.00
2018-03-03T20:57:30.133Z,-5.00
2018-03-03T21:00:00.377Z,-5.00
2018-03-03T21:02:30.531Z,-5.00
2018-03-03T21:04:59.861Z,-5.00
2018-03-03T21:07:31.495Z,-4.90
2018-03-03T21:10:00.951Z,-5.00
2018-03-03T21:12:30.564Z,-5.00
2018-03-03T21:15:00.689Z,-5.00
2018-03-03T21:17:30.065Z,-5.10
2018-03-03T21:20:00.521Z,-5.00
2018-03-03T21:22:30.734Z,-5.00
2018-03-03T21:25:00.140Z,-5.10
2018-03-03T21:27:30.761Z,-5.00
2018-03-03T21:33:32.680Z,-5.00
2018-03-03T21:36:02.847Z,-5.00
2018-03-03T21:38:33.081Z,-4.90
2018-03-03T21:41:03.488Z,-4.90
2018-03-03T21:43:32.984Z,-4.90
2018-03-03T21:46:02.412Z,-4.80
2018-03-03T21:48:32.503Z,-4.70
2018-03-03T21:51:02.781Z,-4.60
2018-03-03T21:53:32.282Z,-4.70
2018-03-03T21:56:02.504Z,-4.50
2018-03-03T21:58:31.891Z,-4.60
2018-03-03T22:01:01.366Z,-4.50
2018-03-03T22:03:30.937Z,-4.40
2018-03-03T22:06:00.493Z,-4.40
2018-03-03T22:08:30.136Z,-4.50
2018-03-03T22:10:59.596Z,-4.60
2018-03-03T22:13:29.016Z,-4.60
2018-03-03T22:15:59.386Z,-4.70
2018-03-03T22:18:28.840Z,-4.70
2018-03-03T22:20:59.151Z,-4.70
2018-03-03T22:23:29.357Z,-4.60
2018-03-03T22:25:58.989Z,-4.70
2018-03-03T22:28:29.300Z,-4.60
2018-03-03T22:30:59.091Z,-4.60
2018-03-03T22:33:28.564Z,-4.70
2018-03-03T22:35:58.293Z,-4.70
2018-03-03T22:38:28.003Z,-4.70
2018-03-03T22:40:57.743Z,-4.80
2018-03-03T22:43:27.325Z,-4.80
2018-03-03T22:45:57.656Z,-4.90
2018-03-03T22:48:28.264Z,-4.90
2018-03-03T22:50:57.816Z,-4.90
2018-03-03T22:53:27.518Z,-4.90
2018-03-03T22:55:58.156Z,-4.90
2018-03-03T22:58:27.720Z,-4.90
2018-03-03T23:00:57.327Z,-4.70
2018-03-03T23:03:26.806Z,-4.70
2018-03-03T23:05:56.978Z,-4.80
2018-03-03T23:08:26.469Z,-4.80
2018-03-03T23:10:55.964Z,-4.70
2018-03-03T23:13:25.403Z,-4.70
2018-03-03T23:15:54.788Z,-4.80
2018-03-03T23:18:24.333Z,-4.80
2018-03-03T23:20:54.663Z,-4.80
2018-03-03T23:23:24.188Z,-4.90
2018-03-03T23:25:53.625Z,-4.80
2018-03-03T23:28:23.173Z,-4.70
2018-03-03T23:30:53.560Z,-4.70
2018-03-03T23:33:23.154Z,-4.80
2018-03-03T23:35:52.840Z,-4.70
2018-03-03T23:38:22.512Z,-4.70
2018-03-03T23:40:52.776Z,-4.70
2018-03-03T23:43:22.342Z,-4.80
2018-03-03T23:45:52.527Z,-4.70
2018-03-03T23:48:22.115Z,-4.80
2018-03-03T23:50:51.565Z,-4.60
2018-03-03T23:53:21.897Z,-4.60
2018-03-03T23:55:52.278Z,-4.60
2018-03-03T23:58:22.087Z,-4.70
